Terminal Aerodrome Forecast
Issued by NWS Wilmington, OH

Current Version | Previous Version | Text Only | Print | Product List | Glossary On
Versions: 1 2 3 4 5 6 7 8 9 10 11 12 13 14 15 16 17 18 19 20 21 22 23 24 25 26
000 FTUS41 KILN 272100 AAA TAFCMH TAF AMD KCMH 272103Z 2721/2818 33008KT P6SM SCT025 TEMPO 2721/2801 BKN025 FM280200 31004KT P6SM SCT025 FM280800 VRB03KT P6SM SCT250 FM281400 13004KT P6SM SCT250=

USA.gov is the U.S. government's official web portal to all federal, state and local government web resources and services.